Time;durP1;ratioP1;P1;durP2;ratioP2;P2;SDS_P1;SDS_P2;PMS_P1;PMS_P2;Temp;Humidity;BMP_temperature;BMP_pressure;BME280_temperature;BME280_humidity;BME280_pressure;Samples;Min_cycle;Max_cycle;Signal;HPM_P1;HPM_P2
2022/11/24 00:01:16;;;;;;;16.95;10.13;;;8.20;99.90;;;;;;5040426;28;20033;-79
2022/11/24 00:03:44;;;;;;;17.83;10.50;;;8.00;99.90;;;;;;5049344;28;20116;-78
2022/11/24 00:06:13;;;;;;;22.00;10.45;;;9.20;99.90;;;;;;5045073;28;20033;-79
2022/11/24 00:08:40;;;;;;;20.23;10.45;;;8.10;99.90;;;;;;5079153;28;20047;-77
2022/11/24 00:11:09;;;;;;;13.73;8.68;;;7.90;99.90;;;;;;5070757;28;20040;-79
2022/11/24 00:13:37;;;;;;;15.43;10.07;;;7.90;99.90;;;;;;5058195;28;20036;-77
2022/11/24 00:16:13;;;;;;;22.05;11.48;;;7.90;99.90;;;;;;5044540;28;20037;-77
2022/11/24 00:18:39;;;;;;;19.83;10.63;;;8.10;99.90;;;;;;5069907;28;20274;-76
2022/11/24 00:21:06;;;;;;;22.02;10.25;;;8.60;99.90;;;;;;5079639;28;20041;-76
2022/11/24 00:23:32;;;;;;;20.52;11.15;;;8.70;99.90;;;;;;5058807;28;20121;-78
2022/11/24 00:26:07;;;;;;;20.13;9.88;;;8.10;99.90;;;;;;5044507;28;20039;-78
2022/11/24 00:28:34;;;;;;;20.92;10.20;;;8.10;99.90;;;;;;5077640;28;20560;-77
2022/11/24 00:31:00;;;;;;;23.45;10.73;;;7.80;99.90;;;;;;5066958;28;20315;-77
2022/11/24 00:33:26;;;;;;;23.15;11.60;;;8.60;99.90;;;;;;5086297;28;20025;-76
2022/11/24 00:35:59;;;;;;;18.15;9.23;;;7.80;99.90;;;;;;5052894;28;20434;-78
2022/11/24 00:38:25;;;;;;;19.48;8.98;;;9.40;99.90;;;;;;5062229;28;20024;-78
2022/11/24 00:40:52;;;;;;;20.20;9.32;;;7.70;99.90;;;;;;5055815;28;20033;-76
2022/11/24 00:43:18;;;;;;;20.70;10.68;;;8.10;99.90;;;;;;5075924;28;20151;-77
2022/11/24 00:45:43;;;;;;;20.75;9.85;;;8.00;99.90;;;;;;5059080;28;20089;-78
2022/11/24 00:48:09;;;;;;;13.63;7.57;;;8.00;99.90;;;;;;5075375;28;20032;-78
2022/11/24 00:50:35;;;;;;;25.00;9.27;;;7.70;99.90;;;;;;5061984;28;20064;-77
2022/11/24 00:53:01;;;;;;;16.92;8.40;;;8.00;99.90;;;;;;5051118;28;20326;-77
2022/11/24 00:55:27;;;;;;;15.55;8.50;;;9.30;99.90;;;;;;5068497;28;20048;-78
2022/11/24 00:57:52;;;;;;;17.05;8.23;;;7.70;99.90;;;;;;5084726;28;20048;-76
2022/11/24 01:00:18;;;;;;;18.52;8.80;;;7.80;99.90;;;;;;5054556;28;20036;-77
2022/11/24 01:02:44;;;;;;;16.98;8.82;;;8.40;99.90;;;;;;5058698;28;20024;-78
2022/11/24 01:05:10;;;;;;;13.82;5.75;;;7.90;99.90;;;;;;5057035;28;20033;-77
2022/11/24 01:07:35;;;;;;;22.35;7.88;;;7.90;99.90;;;;;;5046057;28;20036;-77
2022/11/24 01:10:01;;;;;;;15.68;7.28;;;7.80;99.90;;;;;;5080866;28;20043;-76
2022/11/24 01:12:27;;;;;;;15.85;6.35;;;7.60;99.90;;;;;;5068727;28;20043;-77
2022/11/24 01:14:53;;;;;;;16.50;6.82;;;7.60;99.90;;;;;;5064420;28;20130;-77
2022/11/24 01:17:18;;;;;;;16.58;7.57;;;7.70;99.90;;;;;;5056983;28;20033;-79
2022/11/24 01:19:46;;;;;;;19.05;8.63;;;7.60;99.90;;;;;;5051954;28;20049;-77
2022/11/24 01:22:12;;;;;;;17.63;7.47;;;7.50;99.90;;;;;;5086004;28;20029;-77
2022/11/24 01:24:38;;;;;;;28.13;8.32;;;7.80;99.90;;;;;;5074079;28;20687;-77
2022/11/24 01:27:04;;;;;;;20.92;8.07;;;8.00;99.90;;;;;;5056376;28;20041;-78
2022/11/24 01:29:29;;;;;;;24.88;8.95;;;7.50;99.90;;;;;;5054834;28;20094;-76
2022/11/24 01:31:55;;;;;;;25.05;8.40;;;7.90;99.90;;;;;;5058773;28;20236;-76
2022/11/24 01:34:21;;;;;;;21.15;7.53;;;7.70;99.90;;;;;;5090732;28;20032;-77
2022/11/24 01:36:46;;;;;;;21.67;7.53;;;7.50;99.90;;;;;;5064135;28;20033;-77
2022/11/24 01:39:12;;;;;;;20.77;7.25;;;7.50;99.90;;;;;;5039641;28;20067;-76
2022/11/24 01:41:38;;;;;;;20.88;7.40;;;7.50;99.90;;;;;;5096321;28;20033;-76
2022/11/24 01:44:24;;;;;;;27.13;8.25;;;7.60;99.90;;;;;;5071103;28;20070;-76
2022/11/24 01:47:21;;;;;;;24.08;7.35;;;7.50;99.90;;;;;;5081082;28;20071;-77
2022/11/24 01:49:51;;;;;;;20.92;7.20;;;7.60;99.90;;;;;;5055831;28;20070;-78
2022/11/24 01:52:24;;;;;;;14.95;6.18;;;7.40;99.90;;;;;;5046833;28;20239;-77
2022/11/24 01:54:57;;;;;;;23.77;6.05;;;7.60;99.90;;;;;;5098568;28;20028;-78
2022/11/24 01:57:34;;;;;;;11.65;6.45;;;7.50;99.90;;;;;;5063828;28;20071;-77
2022/11/24 02:00:06;;;;;;;19.65;6.13;;;6.20;99.90;;;;;;5067315;28;20051;-77
2022/11/24 02:02:32;;;;;;;14.48;5.47;;;7.30;99.90;;;;;;5069715;28;20331;-77
2022/11/24 02:05:05;;;;;;;15.70;6.13;;;8.60;99.90;;;;;;5063423;28;20032;-78
2022/11/24 02:07:31;;;;;;;21.75;6.80;;;7.30;99.90;;;;;;5050858;28;20474;-78
2022/11/24 02:10:02;;;;;;;25.20;6.97;;;7.70;99.90;;;;;;5058409;28;20048;-77
2022/11/24 02:12:28;;;;;;;23.10;7.30;;;7.50;99.90;;;;;;5063640;28;20040;-76
2022/11/24 02:14:54;;;;;;;17.88;6.45;;;9.20;99.90;;;;;;5049477;28;20038;-77
2022/11/24 02:17:41;;;;;;;23.73;6.63;;;7.50;99.90;;;;;;5081677;28;20043;-76
2022/11/24 02:20:09;;;;;;;15.93;5.90;;;7.60;99.90;;;;;;5054924;28;20078;-77
2022/11/24 02:22:43;;;;;;;18.27;5.03;;;7.70;99.90;;;;;;5076572;28;20036;-76
2022/11/24 02:25:39;;;;;;;17.60;4.40;;;7.90;99.90;;;;;;5072973;28;20374;-76
2022/11/24 02:28:10;;;;;;;16.70;5.32;;;7.70;99.90;;;;;;5063258;28;20298;-76
2022/11/24 02:30:36;;;;;;;17.15;5.28;;;8.00;99.90;;;;;;5072370;28;20033;-77
2022/11/24 02:33:02;;;;;;;17.63;5.30;;;7.90;99.90;;;;;;5075508;28;20026;-76
2022/11/24 02:35:28;;;;;;;23.98;5.32;;;7.80;99.90;;;;;;5046121;28;20033;-76
2022/11/24 02:37:53;;;;;;;17.35;5.15;;;7.90;99.90;;;;;;5054201;28;20082;-76
2022/11/24 02:40:24;;;;;;;16.38;4.68;;;7.90;99.90;;;;;;5043314;28;20036;-78
2022/11/24 02:42:54;;;;;;;15.43;5.15;;;8.00;99.90;;;;;;5063537;28;20334;-77
2022/11/24 02:45:20;;;;;;;18.80;5.40;;;7.80;99.90;;;;;;5062237;28;20258;-77
2022/11/24 02:47:46;;;;;;;15.88;4.60;;;7.80;99.90;;;;;;5073639;28;20032;-78
2022/11/24 02:50:12;;;;;;;17.05;4.57;;;8.00;99.90;;;;;;5079992;28;20046;-77
2022/11/24 02:52:37;;;;;;;13.68;4.10;;;7.80;99.90;;;;;;5063231;28;20243;-78
2022/11/24 02:55:04;;;;;;;16.55;5.20;;;7.70;99.90;;;;;;5077835;28;20327;-78
2022/11/24 02:57:29;;;;;;;18.65;4.75;;;7.90;99.90;;;;;;5061010;28;20200;-77
2022/11/24 02:59:55;;;;;;;16.00;4.22;;;8.00;99.90;;;;;;5066703;28;20082;-76
2022/11/24 03:02:21;;;;;;;17.73;4.53;;;7.70;99.90;;;;;;5058629;28;20036;-77
2022/11/24 03:04:47;;;;;;;16.27;4.88;;;8.70;99.90;;;;;;5045490;28;20103;-79
2022/11/24 03:07:13;;;;;;;21.90;4.97;;;8.00;99.90;;;;;;5068082;28;20203;-79
2022/11/24 03:09:39;;;;;;;18.23;4.28;;;7.90;99.90;;;;;;5078488;28;20044;-77
2022/11/24 03:12:05;;;;;;;15.55;4.90;;;7.80;99.90;;;;;;5059025;28;20324;-77
2022/11/24 03:14:30;;;;;;;14.43;4.47;;;7.90;99.90;;;;;;5062757;28;20027;-78
2022/11/24 03:16:56;;;;;;;13.38;4.43;;;7.70;99.90;;;;;;5062768;28;20051;-77
2022/11/24 03:19:22;;;;;;;14.82;4.05;;;7.70;99.90;;;;;;5070315;28;20045;-78
2022/11/24 03:21:48;;;;;;;21.02;4.95;;;7.70;99.90;;;;;;5054830;28;20167;-78
2022/11/24 03:24:13;;;;;;;11.82;4.20;;;7.90;99.90;;;;;;5036209;28;20075;-78
2022/11/24 03:26:40;;;;;;;17.52;4.47;;;7.90;99.90;;;;;;5037549;28;20070;-79
2022/11/24 03:29:06;;;;;;;13.10;4.13;;;7.90;99.90;;;;;;5063369;28;20379;-78
2022/11/24 03:31:32;;;;;;;15.30;4.53;;;7.90;99.90;;;;;;5062908;28;20332;-78
2022/11/24 03:33:58;;;;;;;18.92;5.22;;;7.70;99.90;;;;;;5035902;28;20028;-78
2022/11/24 03:36:23;;;;;;;11.90;3.05;;;7.90;99.90;;;;;;5059050;28;20033;-78
2022/11/24 03:38:49;;;;;;;16.25;4.70;;;7.90;99.90;;;;;;5030877;28;20035;-78
2022/11/24 03:41:15;;;;;;;14.65;4.22;;;7.70;99.90;;;;;;5060047;28;20108;-78
2022/11/24 03:43:43;;;;;;;16.63;4.15;;;7.90;99.90;;;;;;5063886;28;20037;-79
2022/11/24 03:46:10;;;;;;;15.18;4.65;;;7.90;99.90;;;;;;5064810;28;20343;-78
2022/11/24 03:48:36;;;;;;;11.15;4.30;;;7.90;99.90;;;;;;5044371;28;20036;-79
2022/11/24 03:51:02;;;;;;;16.30;4.50;;;9.40;99.90;;;;;;5062464;28;20028;-77
2022/11/24 03:53:30;;;;;;;19.17;4.70;;;8.00;99.90;;;;;;5064754;28;20090;-78
2022/11/24 03:55:56;;;;;;;17.23;4.57;;;7.80;99.90;;;;;;5075858;28;20057;-79
2022/11/24 03:58:22;;;;;;;10.35;4.63;;;7.70;99.90;;;;;;5059958;28;20041;-79
2022/11/24 04:00:50;;;;;;;21.25;4.47;;;8.30;99.90;;;;;;5067444;28;20036;-78
2022/11/24 04:03:15;;;;;;;13.75;4.15;;;7.70;99.90;;;;;;5062393;28;20477;-79
2022/11/24 04:05:41;;;;;;;16.38;4.20;;;8.00;99.90;;;;;;5049229;28;20021;-80
2022/11/24 04:08:07;;;;;;;22.70;5.70;;;7.60;99.90;;;;;;5048626;28;20057;-79
2022/11/24 04:10:35;;;;;;;17.58;4.45;;;7.60;99.90;;;;;;5076971;28;20032;-77
2022/11/24 04:13:02;;;;;;;18.85;3.90;;;7.80;99.90;;;;;;5078718;28;20087;-77
2022/11/24 04:15:28;;;;;;;10.98;3.75;;;7.90;99.90;;;;;;5037840;28;20089;-78
2022/11/24 04:17:55;;;;;;;14.10;3.70;;;7.60;99.90;;;;;;5045782;28;20036;-80
2022/11/24 04:20:20;;;;;;;17.58;4.20;;;7.80;99.90;;;;;;5077324;28;20107;-76
2022/11/24 04:22:48;;;;;;;17.60;4.32;;;7.80;99.90;;;;;;5066458;28;20219;-78
2022/11/24 04:25:16;;;;;;;15.38;4.63;;;9.00;99.90;;;;;;5080148;28;20040;-77
2022/11/24 04:27:42;;;;;;;14.52;4.25;;;7.50;99.90;;;;;;5082388;28;20244;-76
2022/11/24 04:30:09;;;;;;;18.23;3.60;;;7.60;99.90;;;;;;5061482;28;20056;-78
2022/11/24 04:32:35;;;;;;;11.80;4.28;;;7.40;99.90;;;;;;5043567;28;20032;-79
2022/11/24 04:35:01;;;;;;;14.50;4.10;;;7.70;99.90;;;;;;5094126;28;20035;-79
2022/11/24 04:37:27;;;;;;;16.23;3.95;;;7.40;99.90;;;;;;5053979;28;20046;-76
2022/11/24 04:39:54;;;;;;;16.35;4.30;;;7.60;99.90;;;;;;5051881;28;20064;-78
2022/11/24 04:42:20;;;;;;;15.75;3.92;;;8.00;99.90;;;;;;5079916;28;20339;-78
2022/11/24 04:44:45;;;;;;;13.57;3.83;;;7.40;99.90;;;;;;5055047;28;20344;-76
2022/11/24 04:47:18;;;;;;;14.07;4.00;;;7.60;99.90;;;;;;5061581;28;20037;-78
2022/11/24 04:49:46;;;;;;;20.45;3.97;;;7.90;99.90;;;;;;5063298;28;20266;-78
2022/11/24 04:52:11;;;;;;;16.13;3.78;;;7.30;99.90;;;;;;5079861;28;20077;-78
2022/11/24 04:54:37;;;;;;;19.38;3.80;;;7.20;99.90;;;;;;5059993;28;20182;-78
2022/11/24 04:57:03;;;;;;;18.15;3.85;;;7.60;99.90;;;;;;5048271;28;20091;-77
2022/11/24 04:59:29;;;;;;;15.63;3.65;;;7.30;99.90;;;;;;5067311;28;20044;-77
2022/11/24 05:01:55;;;;;;;17.63;3.20;;;7.30;99.90;;;;;;5093779;28;20200;-77
2022/11/24 05:04:21;;;;;;;14.90;3.65;;;7.50;99.90;;;;;;5069918;28;20036;-77
2022/11/24 05:06:49;;;;;;;12.23;3.47;;;7.50;99.90;;;;;;5071800;28;20032;-78
2022/11/24 05:09:16;;;;;;;16.08;3.55;;;7.50;99.90;;;;;;5065816;28;20458;-77
2022/11/24 05:11:43;;;;;;;17.83;4.15;;;9.40;99.90;;;;;;5062365;28;20055;-78
2022/11/24 05:14:09;;;;;;;14.57;4.03;;;7.30;99.90;;;;;;5079814;28;20040;-78
2022/11/24 05:16:36;;;;;;;13.20;3.67;;;7.20;99.90;;;;;;5070667;28;20037;-79
2022/11/24 05:19:04;;;;;;;12.90;3.05;;;7.50;99.90;;;;;;5072258;28;20051;-78
2022/11/24 05:21:29;;;;;;;13.85;4.18;;;7.20;99.90;;;;;;5062566;28;20034;-78
2022/11/24 05:23:55;;;;;;;18.67;4.03;;;7.30;99.90;;;;;;5062894;28;20040;-78
2022/11/24 05:26:21;;;;;;;13.05;3.80;;;7.10;99.90;;;;;;5075894;28;20036;-78
2022/11/24 05:28:46;;;;;;;15.35;4.47;;;7.40;99.90;;;;;;5038438;28;20029;-78
2022/11/24 05:31:12;;;;;;;14.13;3.85;;;7.70;99.90;;;;;;5044744;28;20036;-77
2022/11/24 05:33:38;;;;;;;14.35;3.25;;;7.20;99.90;;;;;;5062692;28;20215;-77
2022/11/24 05:36:05;;;;;;;11.13;3.35;;;7.50;99.90;;;;;;5062869;28;20033;-77
2022/11/24 05:38:31;;;;;;;22.55;3.55;;;7.50;99.90;;;;;;5044026;28;20684;-79
2022/11/24 05:41:04;;;;;;;9.15;3.00;;;7.80;99.90;;;;;;5076493;28;20045;-78
2022/11/24 05:43:30;;;;;;;13.35;3.55;;;7.20;99.90;;;;;;5088070;28;20255;-77
2022/11/24 05:46:00;;;;;;;14.88;3.72;;;7.20;99.90;;;;;;5082976;28;20402;-76
2022/11/24 05:48:26;;;;;;;19.35;4.03;;;7.40;99.90;;;;;;5048300;28;20037;-77
2022/11/24 05:51:01;;;;;;;16.27;4.00;;;7.50;99.90;;;;;;5060617;28;20029;-79
2022/11/24 05:53:27;;;;;;;14.10;3.83;;;7.40;99.90;;;;;;5069788;28;20040;-78
2022/11/24 05:55:53;;;;;;;14.73;3.63;;;7.50;99.90;;;;;;5055927;28;20039;-78
2022/11/24 05:58:19;;;;;;;11.70;3.60;;;7.20;99.90;;;;;;5064463;28;20104;-79
2022/11/24 06:00:44;;;;;;;10.45;2.85;;;7.10;99.90;;;;;;5081572;28;20315;-78
2022/11/24 06:03:11;;;;;;;11.55;3.25;;;7.20;99.90;;;;;;5066303;28;20089;-79
2022/11/24 06:05:37;;;;;;;16.85;3.75;;;7.20;99.90;;;;;;5076417;28;20024;-76
2022/11/24 06:08:03;;;;;;;15.68;3.53;;;8.60;99.90;;;;;;5070908;28;20105;-78
2022/11/24 06:10:29;;;;;;;12.43;3.25;;;7.30;99.90;;;;;;5075875;28;20025;-79
2022/11/24 06:12:55;;;;;;;14.75;3.40;;;7.30;99.90;;;;;;5081223;28;20133;-76
2022/11/24 06:15:21;;;;;;;18.45;3.35;;;7.50;99.90;;;;;;5058430;28;20060;-76
2022/11/24 06:17:54;;;;;;;15.75;4.28;;;7.10;99.90;;;;;;5064241;28;20215;-75
2022/11/24 06:20:21;;;;;;;18.08;3.72;;;7.60;99.90;;;;;;5075527;28;20041;-75
2022/11/24 06:22:47;;;;;;;18.45;3.35;;;7.30;99.90;;;;;;5063824;28;20036;-75
2022/11/24 06:25:13;;;;;;;12.82;3.03;;;7.10;99.90;;;;;;5079335;28;20125;-77
2022/11/24 06:27:38;;;;;;;14.32;3.60;;;7.20;99.90;;;;;;5077394;28;20108;-76
2022/11/24 06:30:05;;;;;;;13.98;2.92;;;7.30;99.90;;;;;;5081589;28;20037;-77
2022/11/24 06:32:30;;;;;;;12.65;3.63;;;7.10;99.90;;;;;;5092623;28;20021;-76
2022/11/24 06:34:56;;;;;;;15.52;3.78;;;7.30;99.90;;;;;;5079943;28;20097;-76
2022/11/24 06:37:22;;;;;;;11.45;2.92;;;7.80;99.90;;;;;;5049547;28;20025;-76
2022/11/24 06:39:48;;;;;;;6.57;3.10;;;7.40;99.90;;;;;;5057434;28;20162;-75
2022/11/24 06:42:17;;;;;;;15.15;3.30;;;7.40;99.90;;;;;;5047957;28;20502;-77
2022/11/24 06:44:45;;;;;;;15.75;3.20;;;7.10;99.90;;;;;;5097630;28;20044;-76
2022/11/24 06:47:10;;;;;;;15.82;4.05;;;7.10;99.90;;;;;;5079086;28;20044;-76
2022/11/24 06:49:36;;;;;;;8.77;2.80;;;7.10;99.90;;;;;;5085326;28;20127;-77
2022/11/24 06:52:02;;;;;;;13.30;2.90;;;7.20;99.90;;;;;;5065791;28;20029;-75
2022/11/24 06:54:27;;;;;;;14.98;3.10;;;7.30;99.90;;;;;;5062849;28;20253;-75
2022/11/24 06:56:58;;;;;;;13.50;3.35;;;7.10;99.90;;;;;;5044847;28;20136;-76
2022/11/24 06:59:25;;;;;;;15.10;3.60;;;8.50;99.90;;;;;;5064851;28;20044;-73
2022/11/24 07:01:51;;;;;;;13.15;3.80;;;8.70;99.90;;;;;;5055945;28;20044;-78
2022/11/24 07:04:18;;;;;;;18.33;3.45;;;7.40;99.90;;;;;;5075885;28;20218;-79
2022/11/24 07:06:44;;;;;;;18.23;3.20;;;7.20;99.90;;;;;;5080140;28;20028;-78
2022/11/24 07:09:11;;;;;;;14.60;3.20;;;7.30;99.90;;;;;;5076993;28;20047;-80
2022/11/24 07:11:38;;;;;;;17.20;3.97;;;7.50;99.90;;;;;;5076707;28;20026;-77
2022/11/24 07:14:04;;;;;;;17.20;3.30;;;7.10;99.90;;;;;;5081825;28;20022;-78
2022/11/24 07:16:30;;;;;;;11.73;3.28;;;7.40;99.90;;;;;;5057374;28;20321;-79
2022/11/24 07:18:57;;;;;;;10.93;3.80;;;7.40;99.90;;;;;;5081712;28;20032;-77
2022/11/24 07:21:24;;;;;;;13.70;4.55;;;7.20;99.90;;;;;;5066504;28;20044;-77
2022/11/24 07:23:52;;;;;;;9.40;3.38;;;7.20;99.90;;;;;;5079607;28;20323;-78
2022/11/24 07:26:18;;;;;;;17.20;3.17;;;7.40;99.90;;;;;;5098808;28;20087;-77
2022/11/24 07:28:44;;;;;;;16.92;4.05;;;7.50;99.90;;;;;;5050913;28;20035;-76
2022/11/24 07:31:13;;;;;;;9.57;3.03;;;7.30;99.90;;;;;;5079278;28;20378;-76
2022/11/24 07:33:39;;;;;;;12.40;3.35;;;7.40;99.90;;;;;;5083624;28;20035;-77
2022/11/24 07:36:06;;;;;;;14.15;3.33;;;7.90;99.90;;;;;;5062672;28;20052;-77
2022/11/24 07:38:32;;;;;;;11.27;2.95;;;7.30;99.90;;;;;;5077950;28;20079;-78
2022/11/24 07:41:04;;;;;;;12.15;3.17;;;7.20;99.90;;;;;;5061075;28;20258;-77
2022/11/24 07:43:31;;;;;;;12.82;3.22;;;7.40;99.90;;;;;;5066902;28;20107;-79
2022/11/24 07:45:57;;;;;;;13.98;3.42;;;7.50;99.90;;;;;;5057140;28;20032;-77
2022/11/24 07:48:22;;;;;;;11.55;3.25;;;7.10;99.90;;;;;;5070919;28;20083;-78
2022/11/24 07:50:48;;;;;;;10.48;3.38;;;7.40;99.90;;;;;;5094191;28;20024;-77
2022/11/24 07:53:15;;;;;;;19.33;3.45;;;7.40;99.90;;;;;;5079387;28;20025;-78
2022/11/24 07:55:40;;;;;;;10.10;3.20;;;7.50;99.90;;;;;;5057985;28;20032;-76
2022/11/24 07:58:06;;;;;;;17.83;4.57;;;7.40;99.90;;;;;;5041148;28;20037;-77
2022/11/24 08:00:32;;;;;;;9.00;3.10;;;7.20;99.90;;;;;;5060944;28;20067;-78
2022/11/24 08:02:58;;;;;;;12.30;3.80;;;7.20;99.90;;;;;;5065396;28;20040;-78
2022/11/24 08:05:23;;;;;;;12.52;3.67;;;9.10;99.90;;;;;;5085239;28;20032;-78
2022/11/24 08:07:49;;;;;;;14.73;3.80;;;7.50;99.90;;;;;;5077878;28;20032;-78
2022/11/24 08:10:16;;;;;;;10.07;2.83;;;7.20;99.90;;;;;;5074241;28;20224;-77
2022/11/24 08:12:44;;;;;;;18.92;4.47;;;7.40;99.90;;;;;;5076740;28;20036;-79
2022/11/24 08:15:10;;;;;;;10.50;3.25;;;7.50;99.90;;;;;;5070441;28;20403;-79
2022/11/24 08:17:41;;;;;;;14.90;3.47;;;7.40;99.90;;;;;;5073934;28;20041;-80
2022/11/24 08:20:10;;;;;;;9.45;3.85;;;9.00;99.90;;;;;;5045925;28;20040;-77
2022/11/24 08:22:36;;;;;;;9.15;3.65;;;7.70;99.90;;;;;;5072712;28;20048;-78
2022/11/24 08:25:01;;;;;;;8.88;3.45;;;8.00;99.90;;;;;;5043657;28;20039;-77
2022/11/24 08:27:29;;;;;;;11.75;4.00;;;8.20;99.90;;;;;;5046856;28;20039;-76
2022/11/24 08:29:56;;;;;;;11.98;3.90;;;8.10;99.90;;;;;;5049182;28;20029;-80
2022/11/24 08:32:22;;;;;;;15.63;4.43;;;8.40;99.90;;;;;;5066002;28;20150;-80
2022/11/24 08:34:47;;;;;;;11.10;3.53;;;8.50;99.90;;;;;;5088936;28;20033;-76
2022/11/24 08:37:13;;;;;;;14.25;4.57;;;8.10;99.90;;;;;;5047049;28;20214;-78
2022/11/24 08:39:38;;;;;;;13.02;4.68;;;8.20;99.90;;;;;;5052311;28;20047;-76
2022/11/24 08:42:04;;;;;;;12.02;5.10;;;8.10;99.90;;;;;;5038045;28;20033;-77
2022/11/24 08:44:30;;;;;;;11.40;4.18;;;8.20;99.90;;;;;;5068601;28;20037;-75
2022/11/24 08:46:56;;;;;;;13.40;4.35;;;8.40;99.90;;;;;;5057437;28;20029;-77
2022/11/24 08:49:21;;;;;;;13.23;4.25;;;8.40;99.90;;;;;;5059735;28;20032;-74
2022/11/24 08:51:48;;;;;;;12.70;5.20;;;8.70;99.90;;;;;;5042726;28;20240;-77
2022/11/24 08:54:17;;;;;;;15.85;5.38;;;8.40;99.90;;;;;;5070420;28;20099;-78
2022/11/24 08:56:44;;;;;;;13.32;4.35;;;8.50;99.90;;;;;;5045235;28;20247;-78
2022/11/24 08:59:13;;;;;;;8.85;3.83;;;8.50;99.90;;;;;;5049133;28;20092;-76
2022/11/24 09:01:40;;;;;;;14.57;4.25;;;7.30;99.90;;;;;;5071177;28;20100;-77
2022/11/24 09:04:34;;;;;;;10.02;4.78;;;9.10;99.90;;;;;;5051675;28;20039;-79
2022/11/24 09:07:00;;;;;;;14.73;5.13;;;9.50;99.90;;;;;;5059007;28;20245;-75
2022/11/24 09:09:26;;;;;;;11.27;3.95;;;9.50;99.90;;;;;;5071707;28;20041;-81
2022/11/24 09:11:51;;;;;;;10.93;3.67;;;9.20;99.90;;;;;;5084164;28;20196;-78
2022/11/24 09:14:17;;;;;;;13.25;4.30;;;9.30;99.90;;;;;;5058590;28;20071;-76
2022/11/24 09:16:43;;;;;;;11.50;4.10;;;9.40;99.90;;;;;;5057922;28;20023;-81
2022/11/24 09:19:09;;;;;;;12.25;3.17;;;9.30;99.90;;;;;;5031100;28;20029;-76
2022/11/24 09:21:37;;;;;;;10.38;3.67;;;9.80;99.90;;;;;;5061480;28;20049;-75
2022/11/24 09:24:06;;;;;;;7.93;3.50;;;10.10;99.90;;;;;;5062843;28;20043;-80
2022/11/24 09:26:34;;;;;;;9.13;3.50;;;9.90;99.90;;;;;;5061360;28;20032;-77
2022/11/24 09:29:02;;;;;;;9.70;3.22;;;9.90;99.90;;;;;;5059194;28;20043;-76
2022/11/24 09:31:33;;;;;;;10.38;3.33;;;9.80;99.90;;;;;;5053945;28;20036;-75
2022/11/24 09:34:00;;;;;;;8.05;3.10;;;9.70;99.90;;;;;;5095980;28;20041;-78
2022/11/24 09:36:36;;;;;;;7.47;3.63;;;9.70;99.90;;;;;;5066679;28;20297;-80
2022/11/24 09:39:15;;;;;;;;;;;;;;;;;;;;;
2022/11/24 09:42:18;;;;;;;11.82;3.35;;;10.40;99.90;;;;;;5073235;28;20135;-80
2022/11/24 09:45:15;;;;;;;9.35;3.90;;;12.40;99.90;;;;;;5027221;28;20033;-79
2022/11/24 09:47:57;;;;;;;10.05;3.15;;;9.10;99.90;;;;;;5068037;28;20264;-81
2022/11/24 09:50:33;;;;;;;7.95;3.15;;;10.80;99.90;;;;;;5051133;28;20060;-80
2022/11/24 09:53:14;;;;;;;9.85;3.05;;;11.00;99.90;;;;;;5056451;28;20042;-78
2022/11/24 09:55:50;;;;;;;10.13;3.58;;;10.90;99.90;;;;;;5026421;28;20129;-76
2022/11/24 09:58:56;;;;;;;8.65;2.80;;;11.30;99.90;;;;;;5026494;28;20102;-76
2022/11/24 10:01:32;;;;;;;7.57;2.75;;;11.40;99.90;;;;;;5027688;28;20074;-80
2022/11/24 10:03:59;;;;;;;8.35;2.60;;;11.40;99.90;;;;;;5043828;28;20036;-78
2022/11/24 10:06:31;;;;;;;6.15;2.50;;;11.60;99.90;;;;;;5047337;28;20040;-77
2022/11/24 10:09:22;;;;;;;6.20;2.60;;;11.60;99.90;;;;;;5026978;28;20032;-78
2022/11/24 10:12:22;;;;;;;6.00;2.65;;;11.70;99.90;;;;;;5028950;28;20378;-78
2022/11/24 10:14:53;;;;;;;5.40;2.13;;;11.60;99.90;;;;;;5081301;28;20028;-76
2022/11/24 10:17:41;;;;;;;6.53;2.45;;;11.80;99.90;;;;;;5080272;28;20036;-74
2022/11/24 10:20:26;;;;;;;8.02;2.65;;;11.70;99.90;;;;;;5066802;28;20378;-80
2022/11/24 10:23:08;;;;;;;7.03;2.17;;;11.70;99.90;;;;;;5081394;28;20047;-78
2022/11/24 10:25:41;;;;;;;7.93;2.60;;;12.00;99.90;;;;;;5064164;28;20051;-75
2022/11/24 10:28:12;;;;;;;6.03;2.30;;;12.00;99.90;;;;;;5079717;28;20214;-76
2022/11/24 10:30:38;;;;;;;4.53;1.85;;;12.00;99.90;;;;;;5064635;28;20182;-76
2022/11/24 10:33:17;;;;;;;5.72;1.88;;;11.90;99.90;;;;;;5064400;28;20033;-76
2022/11/24 10:35:49;;;;;;;6.35;2.20;;;11.90;99.90;;;;;;5052184;28;20302;-77
2022/11/24 10:38:33;;;;;;;5.78;1.90;;;12.20;99.90;;;;;;5079857;28;20031;-76
2022/11/24 10:41:32;;;;;;;5.40;1.95;;;12.40;99.90;;;;;;5072736;28;20029;-79
2022/11/24 10:43:57;;;;;;;5.80;2.08;;;12.30;99.90;;;;;;5025846;28;20044;-76
2022/11/24 10:46:26;;;;;;;6.63;2.00;;;12.10;99.90;;;;;;5077550;28;20041;-76
2022/11/24 10:49:03;;;;;;;4.43;1.65;;;12.40;99.90;;;;;;5079926;28;20362;-78
2022/11/24 10:51:52;;;;;;;6.50;2.00;;;12.50;99.90;;;;;;5044283;28;20045;-75
2022/11/24 10:54:21;;;;;;;4.78;1.92;;;12.70;99.90;;;;;;5069335;28;20024;-79
2022/11/24 10:56:50;;;;;;;4.88;1.60;;;13.00;99.90;;;;;;5073509;28;20238;-76
2022/11/24 10:59:38;;;;;;;7.50;1.83;;;12.50;99.90;;;;;;5068583;28;20048;-77
2022/11/24 11:02:30;;;;;;;5.10;2.17;;;12.00;99.90;;;;;;5061355;28;20060;-76
2022/11/24 11:04:56;;;;;;;7.05;1.92;;;11.50;99.90;;;;;;5073982;28;20028;-77
2022/11/24 11:07:25;;;;;;;3.30;1.48;;;11.10;99.90;;;;;;5062930;28;20036;-77
2022/11/24 11:10:20;;;;;;;4.18;1.80;;;10.90;99.90;;;;;;5079751;28;20489;-76
2022/11/24 11:12:46;;;;;;;7.20;1.98;;;10.90;99.90;;;;;;5079988;28;20517;-77
2022/11/24 11:15:38;;;;;;;5.03;2.40;;;11.40;99.90;;;;;;5080253;28;20037;-76
2022/11/24 11:18:04;;;;;;;4.18;1.63;;;11.20;99.90;;;;;;5065417;28;20032;-77
2022/11/24 11:20:34;;;;;;;8.55;1.95;;;11.10;99.90;;;;;;5043765;28;20029;-78
2022/11/24 11:23:03;;;;;;;10.63;2.55;;;11.10;99.90;;;;;;5078600;28;20055;-79
2022/11/24 11:25:34;;;;;;;5.75;1.80;;;10.90;99.90;;;;;;5063247;28;20090;-74
2022/11/24 11:28:25;;;;;;;6.88;1.83;;;10.90;99.90;;;;;;5096443;28;20036;-74
2022/11/24 11:30:59;;;;;;;6.75;1.92;;;10.80;99.90;;;;;;5047354;28;20028;-75
2022/11/24 11:33:28;;;;;;;5.23;2.00;;;10.80;99.90;;;;;;5060397;28;20063;-78
2022/11/24 11:35:55;;;;;;;9.05;1.85;;;10.80;99.90;;;;;;5063198;28;20081;-75
2022/11/24 11:38:31;;;;;;;6.68;1.80;;;10.80;99.90;;;;;;5077081;28;20059;-82
2022/11/24 11:41:01;;;;;;;7.85;1.80;;;10.70;99.90;;;;;;5048857;28;20070;-81
2022/11/24 11:43:45;;;;;;;4.80;2.15;;;10.60;99.90;;;;;;5044619;28;20016;-81
2022/11/24 11:46:14;;;;;;;8.07;1.80;;;10.70;99.90;;;;;;5060952;28;20043;-80
2022/11/24 11:48:43;;;;;;;5.30;2.13;;;10.60;99.90;;;;;;5063184;28;20025;-78
2022/11/24 11:51:09;;;;;;;5.07;1.77;;;10.60;99.90;;;;;;5092910;28;20060;-79
2022/11/24 11:53:47;;;;;;;7.28;2.13;;;10.50;99.90;;;;;;5064547;28;20040;-79
2022/11/24 11:56:29;;;;;;;5.50;2.22;;;10.50;99.90;;;;;;5056724;28;20235;-76
2022/11/24 11:59:12;;;;;;;6.07;2.13;;;12.10;99.90;;;;;;5062615;28;20051;-76
2022/11/24 12:01:50;;;;;;;9.00;2.20;;;10.50;99.90;;;;;;5079763;28;20040;-77
2022/11/24 12:04:49;;;;;;;6.25;1.80;;;10.50;99.90;;;;;;5070916;28;20032;-79
2022/11/24 12:07:33;;;;;;;7.00;2.40;;;10.40;99.90;;;;;;5053315;28;20036;-78
2022/11/24 12:10:31;;;;;;;7.75;2.20;;;10.40;99.90;;;;;;5062113;28;20086;-79
2022/11/24 12:13:43;;;;;;;10.98;2.30;;;10.40;99.90;;;;;;5076065;28;20258;-79
2022/11/24 12:16:15;;;;;;;4.93;2.15;;;10.40;99.90;;;;;;5042302;28;20151;-78
2022/11/24 12:19:08;;;;;;;8.32;2.20;;;10.40;99.90;;;;;;5042908;28;20277;-77
2022/11/24 12:21:59;;;;;;;6.93;2.13;;;10.40;99.90;;;;;;5059068;28;20052;-78
2022/11/24 12:24:54;;;;;;;6.38;2.35;;;10.30;99.90;;;;;;5060349;28;20028;-76
2022/11/24 12:27:31;;;;;;;9.52;2.70;;;10.40;99.90;;;;;;5059307;28;20068;-78
2022/11/24 12:30:10;;;;;;;6.80;2.30;;;10.40;99.90;;;;;;5059124;28;20188;-78
2022/11/24 12:35:49;;;;;;;7.57;2.67;;;10.40;99.90;;;;;;5068908;28;20040;-80
2022/11/24 12:38:32;;;;;;;6.93;3.03;;;10.40;99.90;;;;;;5062544;28;20327;-78
2022/11/24 12:41:21;;;;;;;8.95;2.65;;;10.50;99.90;;;;;;5062707;28;20060;-77
2022/11/24 12:43:52;;;;;;;6.05;2.45;;;10.50;99.90;;;;;;5083340;28;20029;-76
2022/11/24 12:47:09;;;;;;;6.05;2.10;;;10.50;99.90;;;;;;5060221;28;20195;-77
2022/11/24 12:49:53;;;;;;;11.80;2.45;;;10.60;99.90;;;;;;5060070;28;20111;-76
2022/11/24 12:52:26;;;;;;;7.30;2.33;;;10.60;99.90;;;;;;5066665;28;20036;-78
2022/11/24 12:54:54;;;;;;;7.38;2.60;;;10.60;99.90;;;;;;5066190;28;20108;-81
2022/11/24 12:57:31;;;;;;;5.15;1.88;;;10.60;99.90;;;;;;5046110;28;20063;-79
2022/11/24 13:00:06;;;;;;;6.65;2.33;;;10.50;99.90;;;;;;5062780;28;20196;-79
2022/11/24 13:02:55;;;;;;;8.93;2.58;;;10.60;99.90;;;;;;5062884;28;20078;-80
2022/11/24 13:05:26;;;;;;;10.18;2.33;;;10.60;99.90;;;;;;5062854;28;20041;-77
2022/11/24 13:08:01;;;;;;;7.45;2.10;;;10.60;99.90;;;;;;5079062;28;20040;-81